Time;durP1;ratioP1;P1;durP2;ratioP2;P2;SDS_P1;SDS_P2;PMS_P1;PMS_P2;Temp;Humidity;BMP_temperature;BMP_pressure;BME280_temperature;BME280_humidity;BME280_pressure;Samples;Min_cycle;Max_cycle;Signal;HPM_P1;HPM_P2
2022/05/30 00:02:07;;;;;;;6.15;3.87;;;;;;;10.51;68.08;99676.70;2239574;78;21658;-67
2022/05/30 00:05:11;;;;;;;6.95;3.20;;;;;;;10.49;68.31;99682.17;2235389;78;21037;-68
2022/05/30 00:08:14;;;;;;;7.75;3.02;;;;;;;10.47;68.33;99673.59;2238507;78;20990;-68
2022/05/30 00:11:17;;;;;;;8.43;3.85;;;;;;;10.48;68.37;99677.06;2240261;78;21041;-68
2022/05/30 00:14:19;;;;;;;7.72;3.98;;;;;;;10.45;68.45;99678.24;2245480;78;21081;-76
2022/05/30 00:17:20;;;;;;;11.53;4.40;;;;;;;10.42;68.59;99670.64;2243208;78;20998;-67
2022/05/30 00:20:22;;;;;;;9.13;4.85;;;;;;;10.35;68.71;99666.20;2244936;77;21488;-68
2022/05/30 00:23:24;;;;;;;5.60;4.00;;;;;;;10.32;68.82;99667.38;2240215;78;21016;-69
2022/05/30 00:26:25;;;;;;;9.60;4.42;;;;;;;10.27;68.75;99664.42;2235204;78;21361;-68
2022/05/30 00:29:27;;;;;;;10.08;3.98;;;;;;;10.24;68.82;99664.24;2237333;77;21583;-68
2022/05/30 00:32:29;;;;;;;14.25;4.87;;;;;;;10.18;68.74;99666.27;2237716;78;21052;-67
2022/05/30 00:35:30;;;;;;;10.63;4.25;;;;;;;10.14;68.93;99660.19;2246331;78;20907;-68
2022/05/30 00:38:32;;;;;;;10.40;4.12;;;;;;;10.11;69.05;99662.69;2244729;78;21065;-68
2022/05/30 00:41:33;;;;;;;7.95;4.15;;;;;;;10.05;69.12;99654.94;2239935;78;21040;-70
2022/05/30 00:44:35;;;;;;;7.80;3.92;;;;;;;10.02;69.26;99665.03;2240125;78;21009;-67
2022/05/30 00:47:37;;;;;;;9.05;3.85;;;;;;;9.95;69.27;99660.94;2248176;77;21045;-69
2022/05/30 00:50:40;;;;;;;9.25;3.83;;;;;;;9.96;69.50;99658.61;2243994;77;20973;-69
2022/05/30 00:53:45;;;;;;;6.17;3.55;;;;;;;9.97;69.47;99655.48;2247221;77;21464;-67
2022/05/30 00:56:51;;;;;;;5.40;3.27;;;;;;;9.95;69.72;99654.82;2252183;77;20962;-77
2022/05/30 00:59:56;;;;;;;10.00;4.60;;;;;;;9.88;69.60;99648.90;2250914;77;20978;-70
2022/05/30 01:06:33;;;;;;;4.85;3.02;;;;;;;9.72;69.93;99645.00;2250503;77;21041;-67
2022/05/30 01:09:45;;;;;;;8.73;3.90;;;;;;;9.73;69.96;99647.96;2242098;77;20947;-67
2022/05/30 01:12:52;;;;;;;8.95;3.60;;;;;;;9.69;70.03;99638.72;2245615;77;20986;-70
2022/05/30 01:15:55;;;;;;;5.40;3.77;;;;;;;9.66;70.14;99641.72;2257879;77;21005;-69
2022/05/30 01:19:01;;;;;;;4.92;3.45;;;;;;;9.63;70.21;99642.88;2250534;77;21081;-67
2022/05/30 01:22:35;;;;;;;6.22;3.80;;;;;;;9.62;70.38;99638.56;2249529;77;21001;-67
2022/05/30 01:26:12;;;;;;;6.97;3.55;;;;;;;9.57;70.45;99642.25;2246314;77;21318;-68
2022/05/30 01:29:27;;;;;;;15.68;4.08;;;;;;;9.42;70.59;99639.47;2252757;77;21041;-70
2022/05/30 01:32:29;;;;;;;7.40;3.37;;;;;;;9.33;70.73;99637.86;2248511;77;20962;-69
2022/05/30 01:35:31;;;;;;;4.80;3.58;;;;;;;9.32;70.71;99623.45;2249574;77;20933;-71
2022/05/30 01:38:35;;;;;;;9.25;3.35;;;;;;;9.32;70.73;99628.75;2245954;77;21038;-70
2022/05/30 01:41:37;;;;;;;7.15;3.27;;;;;;;9.32;70.73;99626.09;2248829;77;21425;-67
2022/05/30 01:44:39;;;;;;;6.10;3.20;;;;;;;9.32;70.77;99624.30;2250599;77;21042;-68
2022/05/30 01:47:40;;;;;;;6.97;3.77;;;;;;;9.31;70.78;99625.78;2247940;77;21056;-67
2022/05/30 01:50:45;;;;;;;7.97;3.83;;;;;;;9.32;70.89;99628.27;2248539;78;21805;-67
2022/05/30 01:53:52;;;;;;;5.80;3.00;;;;;;;9.31;70.99;99631.08;2246335;78;21536;-67
2022/05/30 01:56:59;;;;;;;3.85;2.75;;;;;;;9.29;71.15;99631.27;2251789;78;20985;-67
2022/05/30 02:00:04;;;;;;;5.47;2.83;;;;;;;9.27;71.66;99629.27;2251568;78;21028;-68
2022/05/30 02:03:18;;;;;;;5.87;2.67;;;;;;;9.27;71.58;99625.30;2252851;78;21108;-69
2022/05/30 02:06:23;;;;;;;5.58;2.60;;;;;;;9.29;71.65;99625.97;2250142;78;21017;-76
2022/05/30 02:09:24;;;;;;;5.72;2.95;;;;;;;9.32;71.63;99630.92;2250003;78;21044;-68
2022/05/30 02:12:26;;;;;;;5.95;2.75;;;;;;;9.34;71.62;99625.44;2248563;78;21093;-76
2022/05/30 02:15:29;;;;;;;3.70;2.65;;;;;;;9.35;71.70;99626.61;2244245;78;21519;-74
2022/05/30 02:18:32;;;;;;;7.45;3.20;;;;;;;9.38;71.70;99624.94;2253490;78;21045;-69
2022/05/30 02:21:34;;;;;;;5.47;3.40;;;;;;;9.39;71.65;99623.92;2251081;78;21397;-69
2022/05/30 02:24:38;;;;;;;3.95;2.60;;;;;;;9.42;71.79;99623.59;2248314;78;21579;-73
2022/05/30 02:27:41;;;;;;;4.90;2.85;;;;;;;9.45;71.61;99626.89;2247934;78;20970;-75
2022/05/30 02:30:43;;;;;;;4.80;2.60;;;;;;;9.45;71.71;99627.72;2249082;78;21108;-68
2022/05/30 02:37:05;;;;;;;5.60;2.80;;;;;;;9.48;71.66;99633.98;2248531;78;20974;-69
2022/05/30 02:40:09;;;;;;;5.80;2.87;;;;;;;9.49;71.71;99631.69;2251426;78;21002;-69
2022/05/30 02:43:28;;;;;;;5.35;2.80;;;;;;;9.49;71.82;99633.02;2252097;78;21033;-76
2022/05/30 02:46:30;;;;;;;4.83;2.75;;;;;;;9.49;71.82;99629.52;2254435;77;21021;-69
2022/05/30 02:49:33;;;;;;;5.30;2.45;;;;;;;9.49;71.86;99626.39;2257669;77;21563;-69
2022/05/30 02:52:34;;;;;;;6.25;3.12;;;;;;;9.49;71.81;99624.22;2262737;77;21080;-70
2022/05/30 02:55:36;;;;;;;7.60;2.98;;;;;;;9.49;72.20;99629.04;2250566;77;21037;-68
2022/05/30 02:58:38;;;;;;;8.03;3.55;;;;;;;9.49;72.09;99629.52;2260990;77;21029;-76
2022/05/30 03:01:39;;;;;;;11.68;3.25;;;;;;;9.47;72.15;99628.88;2256915;77;21475;-68
2022/05/30 03:04:40;;;;;;;3.98;2.45;;;;;;;9.45;72.22;99633.02;2246306;77;21056;-71
2022/05/30 03:07:42;;;;;;;8.25;3.20;;;;;;;9.46;72.21;99633.36;2260810;77;21076;-68
2022/05/30 03:10:46;;;;;;;7.12;2.42;;;;;;;9.49;72.31;99633.48;2245719;77;21041;-74
2022/05/30 03:13:47;;;;;;;6.97;2.92;;;;;;;9.49;72.15;99631.69;2258353;77;21430;-68
2022/05/30 03:16:50;;;;;;;8.20;3.20;;;;;;;9.49;72.39;99634.34;2264802;77;21040;-69
2022/05/30 03:19:52;;;;;;;6.60;2.90;;;;;;;9.49;72.31;99630.84;2261837;77;20962;-73
2022/05/30 03:22:56;;;;;;;10.18;3.30;;;;;;;9.51;72.28;99634.15;2255323;77;21060;-67
2022/05/30 03:25:59;;;;;;;7.37;2.90;;;;;;;9.52;72.43;99643.77;2241410;77;21029;-69
2022/05/30 03:29:02;;;;;;;5.60;2.80;;;;;;;9.52;72.44;99643.77;2252674;77;21013;-70
2022/05/30 03:32:06;;;;;;;5.10;2.85;;;;;;;9.51;72.62;99644.74;2257461;77;21524;-69
2022/05/30 03:35:08;;;;;;;6.47;3.08;;;;;;;9.49;72.78;99649.38;2254006;77;21425;-72
2022/05/30 03:38:11;;;;;;;4.92;2.85;;;;;;;9.48;72.87;99637.14;2256713;77;20998;-70
2022/05/30 03:41:15;;;;;;;7.72;3.37;;;;;;;9.48;73.14;99639.80;2214958;77;20993;-73
2022/05/30 03:44:18;;;;;;;4.67;2.98;;;;;;;9.48;72.96;99643.77;2255217;77;21065;-84
2022/05/30 03:47:20;;;;;;;4.35;3.05;;;;;;;9.51;73.00;99644.23;2253213;77;21014;-71
2022/05/30 03:50:24;;;;;;;7.05;3.02;;;;;;;9.57;72.79;99648.02;2231441;78;22177;-70
2022/05/30 03:53:25;;;;;;;5.83;2.92;;;;;;;9.64;72.83;99649.00;2222759;78;21092;-71
2022/05/30 03:56:28;;;;;;;7.17;2.83;;;;;;;9.72;72.95;99654.27;2242718;78;21021;-71
2022/05/30 03:59:29;;;;;;;4.95;2.83;;;;;;;9.86;73.09;99658.84;2246266;78;22226;-73
2022/05/30 04:02:32;;;;;;;7.55;3.45;;;;;;;9.95;72.86;99660.13;2237837;78;21045;-78
2022/05/30 04:05:34;;;;;;;5.60;3.15;;;;;;;9.99;72.71;99660.09;2243314;78;21472;-73
2022/05/30 04:08:36;;;;;;;6.65;2.95;;;;;;;10.01;72.78;99654.94;2236705;78;21312;-73
2022/05/30 04:11:57;;;;;;;6.15;2.75;;;;;;;9.98;72.62;99652.64;2240977;78;21128;-72
2022/05/30 04:15:01;;;;;;;6.85;2.85;;;;;;;9.96;72.62;99650.66;2236464;78;21021;-74
2022/05/30 04:18:07;;;;;;;5.22;3.25;;;;;;;9.91;72.70;99650.37;2246486;78;21068;-87
2022/05/30 04:21:11;;;;;;;6.37;2.55;;;;;;;9.88;72.67;99651.55;2240611;78;21000;-75
2022/05/30 04:24:14;;;;;;;4.83;3.40;;;;;;;9.88;72.71;99651.55;2241602;78;21038;-70
2022/05/30 04:27:17;;;;;;;5.85;3.15;;;;;;;9.85;72.73;99655.02;2242770;78;21038;-76
2022/05/30 04:30:19;;;;;;;4.92;2.95;;;;;;;9.84;72.85;99662.16;2245679;78;20993;-71
2022/05/30 04:33:22;;;;;;;6.55;3.33;;;;;;;9.87;73.04;99661.80;2244689;78;21073;-71
2022/05/30 04:36:24;;;;;;;7.00;2.83;;;;;;;9.93;73.05;99663.44;2245279;78;20961;-71
2022/05/30 04:39:27;;;;;;;5.08;3.15;;;;;;;10.01;73.15;99666.05;2236556;78;21002;-70
2022/05/30 04:42:28;;;;;;;5.53;3.20;;;;;;;10.16;73.15;99664.30;2242519;78;21797;-71
2022/05/30 04:46:06;;;;;;;7.20;2.77;;;;;;;10.40;73.27;99669.16;2242587;78;21022;-70
2022/05/30 04:49:09;;;;;;;6.08;2.70;;;;;;;10.71;72.86;99657.97;2254044;77;20978;-72
2022/05/30 04:52:11;;;;;;;3.90;2.60;;;;;;;11.03;72.77;99656.52;2243583;77;21528;-71
2022/05/30 04:55:18;;;;;;;5.47;2.52;;;;;;;11.55;72.25;99659.13;2249204;77;20997;-69
2022/05/30 04:58:21;;;;;;;2.72;2.02;;;;;;;12.23;71.84;99658.94;2244690;77;20979;-71
2022/05/30 05:01:30;;;;;;;5.22;2.00;;;;;;;12.75;69.59;99653.30;2246215;77;20998;-73
2022/05/30 05:04:31;;;;;;;4.80;1.95;;;;;;;12.67;68.46;99655.25;2253393;77;20970;-77
2022/05/30 05:07:44;;;;;;;2.67;1.85;;;;;;;12.61;66.04;99656.02;2251508;77;20918;-71
2022/05/30 05:11:10;;;;;;;3.80;1.70;;;;;;;12.61;65.97;99658.68;2247413;77;20963;-73
2022/05/30 05:14:25;;;;;;;5.00;1.80;;;;;;;12.59;65.44;99644.77;2205182;77;20995;-72
2022/05/30 05:17:36;;;;;;;3.55;1.32;;;;;;;12.49;65.49;99658.37;2248995;77;21075;-72
2022/05/30 05:20:43;;;;;;;3.45;1.57;;;;;;;12.42;65.79;99660.16;2256725;77;20973;-73
2022/05/30 05:23:46;;;;;;;3.20;1.67;;;;;;;12.46;63.42;99658.24;2247651;77;21021;-72
2022/05/30 05:26:49;;;;;;;3.42;1.80;;;;;;;12.38;64.66;99664.20;2221318;78;21619;-69
2022/05/30 05:29:55;;;;;;;3.12;1.47;;;;;;;12.42;65.68;99668.14;2257211;77;21080;-70
2022/05/30 05:32:57;;;;;;;4.70;2.05;;;;;;;12.61;64.85;99662.16;2249571;77;21560;-75
2022/05/30 05:35:58;;;;;;;2.77;1.92;;;;;;;12.67;64.75;99666.74;2248014;77;20911;-76
2022/05/30 05:39:00;;;;;;;3.33;1.87;;;;;;;12.80;64.92;99674.00;2251637;77;21014;-76
2022/05/30 05:42:04;;;;;;;7.17;1.92;;;;;;;12.91;64.48;99668.67;2250033;77;21013;-77
2022/05/30 05:45:07;;;;;;;2.80;1.90;;;;;;;12.92;64.11;99676.96;2256649;77;20970;-79
2022/05/30 05:48:10;;;;;;;2.77;2.05;;;;;;;12.92;64.40;99683.63;2248564;77;21044;-76
2022/05/30 05:51:13;;;;;;;3.42;2.00;;;;;;;12.86;64.02;99680.41;2244930;78;20973;-76
2022/05/30 05:54:15;;;;;;;4.05;1.70;;;;;;;12.96;64.65;99672.41;2248868;78;21070;-75
2022/05/30 05:57:17;;;;;;;1.77;1.40;;;;;;;13.00;63.21;99676.31;2248321;78;20990;-76
2022/05/30 06:00:21;;;;;;;3.47;1.72;;;;;;;12.83;63.07;99682.12;2242833;78;21025;-75
2022/05/30 06:03:24;;;;;;;4.15;2.08;;;;;;;12.63;62.93;99686.75;2241849;77;21340;-70
2022/05/30 06:06:37;;;;;;;2.27;1.47;;;;;;;12.56;63.87;99680.56;2248348;77;21061;-69
2022/05/30 06:09:39;;;;;;;3.47;1.72;;;;;;;12.52;63.98;99684.09;2247780;77;21488;-71
2022/05/30 06:12:48;;;;;;;2.75;1.85;;;;;;;12.53;63.44;99690.26;2244831;78;20963;-70
2022/05/30 06:15:51;;;;;;;1.90;1.20;;;;;;;12.38;62.56;99687.63;2246596;78;20966;-70
2022/05/30 06:18:58;;;;;;;2.72;1.50;;;;;;;12.31;63.10;99684.91;2245935;77;21571;-75
2022/05/30 06:21:59;;;;;;;3.85;1.75;;;;;;;12.32;63.23;99687.06;2245449;78;20970;-70
2022/05/30 06:25:03;;;;;;;3.87;1.30;;;;;;;12.26;62.61;99679.33;2239219;78;21038;-70
2022/05/30 06:28:15;;;;;;;2.20;1.35;;;;;;;12.23;63.32;99686.87;2237562;78;21564;-70
2022/05/30 06:31:23;;;;;;;2.92;1.35;;;;;;;12.44;63.74;99692.70;2248353;78;21052;-69
2022/05/30 06:34:26;;;;;;;2.72;1.40;;;;;;;12.64;63.65;99680.92;2243904;78;21518;-70
2022/05/30 06:37:27;;;;;;;2.42;1.75;;;;;;;12.82;63.27;99680.48;2237666;78;20947;-70
2022/05/30 06:40:30;;;;;;;2.05;1.72;;;;;;;13.06;63.92;99681.89;2246113;78;21039;-74
2022/05/30 06:43:33;;;;;;;3.42;2.17;;;;;;;13.22;62.20;99682.42;2245060;78;21002;-71
2022/05/30 06:46:52;;;;;;;3.27;1.70;;;;;;;13.21;62.76;99686.63;2246655;77;21002;-72
2022/05/30 06:50:09;;;;;;;5.70;2.12;;;;;;;13.45;63.34;99681.37;2193288;77;21039;-70
2022/05/30 06:53:10;;;;;;;3.95;1.85;;;;;;;13.64;63.20;99686.50;2251140;77;21025;-69
2022/05/30 06:56:26;;;;;;;2.60;1.72;;;;;;;13.75;63.33;99689.13;2250532;77;20957;-69
2022/05/30 06:59:28;;;;;;;2.42;2.05;;;;;;;13.74;62.92;99692.31;2251235;77;21499;-69
2022/05/30 07:02:29;;;;;;;3.17;2.15;;;;;;;13.53;62.55;99696.39;2253952;77;21047;-70
2022/05/30 07:05:47;;;;;;;5.67;2.33;;;;;;;13.33;62.51;99702.92;2251387;77;21024;-69
2022/05/30 07:09:07;;;;;;;5.30;2.50;;;;;;;13.08;62.98;99707.31;2252376;77;21057;-69
2022/05/30 07:12:10;;;;;;;5.20;2.55;;;;;;;12.91;63.37;99704.11;2246077;77;21470;-70
2022/05/30 07:15:12;;;;;;;5.03;2.90;;;;;;;12.82;63.41;99700.45;2253776;77;21450;-69
2022/05/30 07:18:16;;;;;;;3.47;3.17;;;;;;;12.70;63.64;99704.95;2251736;77;21440;-69
2022/05/30 07:21:18;;;;;;;7.87;3.60;;;;;;;12.69;64.16;99703.80;2252057;77;20946;-70
2022/05/30 07:24:38;;;;;;;6.93;3.67;;;;;;;12.70;64.06;99704.14;2246856;77;21033;-70
2022/05/30 07:27:58;;;;;;;6.90;3.97;;;;;;;12.71;64.47;99711.09;2246906;77;21470;-71
2022/05/30 07:31:20;;;;;;;6.78;4.67;;;;;;;12.67;64.51;99714.66;2251574;77;21033;-71
2022/05/30 07:34:40;;;;;;;11.63;5.35;;;;;;;12.60;64.52;99712.94;2250384;77;21013;-70
2022/05/30 07:37:46;;;;;;;7.85;4.53;;;;;;;12.56;65.11;99722.63;2238629;77;21578;-71
2022/05/30 07:41:04;;;;;;;9.63;3.80;;;;;;;12.62;65.63;99721.05;2255483;77;20958;-69
2022/05/30 07:44:13;;;;;;;6.65;3.62;;;;;;;12.68;65.43;99721.62;2232367;77;20967;-70
2022/05/30 07:47:17;;;;;;;4.53;3.62;;;;;;;12.68;64.96;99723.45;2244709;77;21046;-76
2022/05/30 07:50:21;;;;;;;9.43;3.58;;;;;;;12.58;64.87;99729.08;2246677;78;20969;-70
2022/05/30 07:53:27;;;;;;;8.73;3.45;;;;;;;12.56;65.29;99726.63;2243781;78;20975;-76
2022/05/30 07:56:31;;;;;;;5.55;3.33;;;;;;;12.61;65.46;99729.20;2226054;78;21058;-70
2022/05/30 07:59:35;;;;;;;5.78;3.20;;;;;;;12.58;65.28;99728.27;2238295;77;21053;-69
2022/05/30 08:02:38;;;;;;;7.62;3.17;;;;;;;12.49;65.47;99732.37;2245815;78;20966;-71
2022/05/30 08:05:41;;;;;;;7.67;3.35;;;;;;;12.49;65.78;99739.53;2243489;78;21057;-69
2022/05/30 08:08:44;;;;;;;8.23;3.27;;;;;;;12.48;65.67;99733.91;2243045;78;21559;-70
2022/05/30 08:11:45;;;;;;;6.28;3.30;;;;;;;12.47;65.77;99747.72;2239506;78;21391;-70
2022/05/30 08:14:49;;;;;;;6.97;3.33;;;;;;;12.41;65.81;99744.45;2240506;78;21014;-70
2022/05/30 08:17:55;;;;;;;7.60;3.30;;;;;;;12.44;65.91;99752.06;2241498;78;21553;-69
2022/05/30 08:20:57;;;;;;;6.08;2.85;;;;;;;12.38;66.00;99751.99;2239814;78;20947;-72
2022/05/30 08:23:59;;;;;;;11.08;4.42;;;;;;;12.28;66.22;99750.97;2246401;77;21113;-75
2022/05/30 08:27:02;;;;;;;8.18;4.95;;;;;;;12.31;66.65;99755.41;2234731;78;21042;-71
2022/05/30 08:30:19;;;;;;;8.23;4.70;;;;;;;12.41;66.87;99752.44;2212721;78;21044;-70
2022/05/30 08:33:23;;;;;;;12.43;5.78;;;;;;;12.47;66.85;99761.50;2243006;78;21501;-70
2022/05/30 08:36:29;;;;;;;8.38;4.30;;;;;;;12.53;66.99;99758.12;2222290;78;20959;-70
2022/05/30 08:42:50;;;;;;;6.03;3.27;;;;;;;12.72;66.71;99757.98;2237644;78;20974;-70
2022/05/30 08:46:08;;;;;;;11.80;4.28;;;;;;;12.79;66.67;99756.23;2239657;78;21338;-72
2022/05/30 08:49:38;;;;;;;12.10;4.70;;;;;;;12.98;67.13;99759.59;2242562;78;21038;-71
2022/05/30 08:52:48;;;;;;;8.70;3.80;;;;;;;13.23;66.98;99757.83;2233729;78;21587;-73
2022/05/30 08:56:07;;;;;;;8.37;3.10;;;;;;;13.40;66.19;99756.59;2243925;78;21013;-70
2022/05/30 08:59:24;;;;;;;7.25;3.25;;;;;;;13.53;66.35;99756.36;2180546;78;21522;-69
2022/05/30 09:02:49;;;;;;;11.43;4.70;;;;;;;13.71;65.87;99755.84;2249943;78;21098;-70
2022/05/30 09:05:56;;;;;;;9.68;4.03;;;;;;;13.81;66.19;99757.66;2247411;78;21041;-71
2022/05/30 09:09:09;;;;;;;6.50;3.10;;;;;;;13.98;65.88;99760.31;2250141;78;20989;-71
2022/05/30 09:12:49;;;;;;;6.22;3.10;;;;;;;14.10;65.42;99761.39;2248007;78;21504;-69
2022/05/30 09:16:17;;;;;;;4.92;3.15;;;;;;;14.10;65.01;99766.73;2191492;78;21028;-70
2022/05/30 09:19:23;;;;;;;5.78;2.92;;;;;;;14.21;64.96;99768.53;2252986;78;21047;-71
2022/05/30 09:22:25;;;;;;;10.65;3.25;;;;;;;14.42;65.00;99771.60;2244390;78;21140;-71
2022/05/30 09:25:56;;;;;;;5.03;2.90;;;;;;;14.63;64.39;99774.14;2243893;78;20970;-70
2022/05/30 09:29:27;;;;;;;9.70;3.10;;;;;;;14.85;64.32;99771.33;2245266;78;21017;-71
2022/05/30 09:33:12;;;;;;;4.40;2.85;;;;;;;15.06;64.01;99771.13;2251743;78;21038;-71
2022/05/30 09:36:34;;;;;;;4.85;2.70;;;;;;;15.64;63.25;99771.84;2240100;78;21037;-80
2022/05/30 09:39:48;;;;;;;6.03;3.08;;;;;;;16.49;62.10;99766.45;2219078;78;21558;-70
2022/05/30 09:42:55;;;;;;;4.15;2.60;;;;;;;16.81;61.67;99766.01;2251390;78;21104;-71
2022/05/30 09:46:01;;;;;;;5.33;2.83;;;;;;;16.87;60.85;99771.83;2246950;78;21005;-71
2022/05/30 09:49:21;;;;;;;7.35;2.50;;;;;;;16.82;60.48;99772.18;2245254;77;21509;-71
2022/05/30 09:52:40;;;;;;;5.25;3.20;;;;;;;16.90;60.13;99760.69;2251229;77;20943;-70
2022/05/30 09:55:55;;;;;;;7.97;3.10;;;;;;;17.54;60.36;99759.22;2242423;77;21060;-79
2022/05/30 09:59:06;;;;;;;7.75;3.30;;;;;;;18.27;58.97;99755.77;2252044;77;21017;-70
2022/05/30 10:02:29;;;;;;;7.28;3.00;;;;;;;18.30;57.54;99756.16;2250688;77;20990;-70
2022/05/30 10:05:34;;;;;;;5.45;2.35;;;;;;;17.89;56.99;99764.37;2250747;77;21020;-73
2022/05/30 10:08:35;;;;;;;4.30;2.65;;;;;;;17.73;56.66;99768.12;2252973;77;21024;-71
2022/05/30 10:11:42;;;;;;;7.47;2.95;;;;;;;17.44;56.47;99763.77;2249766;77;20955;-74
2022/05/30 10:14:45;;;;;;;5.72;3.00;;;;;;;17.23;56.46;99766.30;2252926;77;20990;-72
2022/05/30 10:17:49;;;;;;;4.60;2.75;;;;;;;17.17;56.96;99764.49;2258877;77;21366;-70
2022/05/30 10:21:23;;;;;;;5.80;2.85;;;;;;;17.24;56.84;99763.94;2252239;77;21049;-71
2022/05/30 10:28:42;;;;;;;6.12;3.08;;;;;;;17.19;56.20;99761.90;2242899;77;20962;-70
2022/05/30 10:32:30;;;;;;;3.77;2.45;;;;;;;16.92;55.48;99759.11;2245384;77;21112;-70
2022/05/30 10:35:56;;;;;;;4.80;2.83;;;;;;;16.81;56.30;99763.33;2244160;77;20934;-71
2022/05/30 10:39:15;;;;;;;2.95;2.15;;;;;;;16.61;56.33;99761.23;2260689;77;21562;-75
2022/05/30 10:42:48;;;;;;;5.10;2.17;;;;;;;16.85;55.67;99767.20;2255573;77;21001;-71
2022/05/30 10:46:04;;;;;;;3.47;1.98;;;;;;;17.13;55.95;99771.34;2247809;77;21049;-71
2022/05/30 10:49:15;;;;;;;4.10;2.27;;;;;;;17.55;55.56;99769.75;2252461;77;21025;-70
2022/05/30 10:52:40;;;;;;;4.20;2.22;;;;;;;17.94;54.75;99760.21;2259006;77;20958;-69
2022/05/30 10:55:46;;;;;;;2.60;2.12;;;;;;;18.17;53.61;99747.45;2254579;77;20967;-69
2022/05/30 10:58:56;;;;;;;2.75;1.62;;;;;;;18.40;53.96;99757.48;2256107;77;21001;-71
2022/05/30 11:02:27;;;;;;;3.40;1.67;;;;;;;18.67;53.36;99757.92;2256956;77;20977;-75
2022/05/30 11:05:36;;;;;;;3.30;1.45;;;;;;;18.62;52.19;99757.28;2224885;77;21441;-78
2022/05/30 11:09:00;;;;;;;2.08;1.52;;;;;;;18.59;51.35;99754.52;2260702;77;21024;-75
2022/05/30 11:12:10;;;;;;;2.85;1.95;;;;;;;18.55;50.64;99754.67;2255792;77;21067;-76
2022/05/30 11:15:32;;;;;;;1.30;1.20;;;;;;;18.67;49.90;99754.73;2259883;77;21020;-77
2022/05/30 11:19:03;;;;;;;1.12;1.02;;;;;;;18.74;50.17;99756.00;2263089;77;20978;-76
2022/05/30 11:22:20;;;;;;;1.62;1.35;;;;;;;18.92;49.35;99757.80;2216180;77;21038;-75
2022/05/30 11:25:59;;;;;;;1.85;1.47;;;;;;;19.08;48.25;99755.80;2266638;77;20950;-75
2022/05/30 11:29:35;;;;;;;2.52;1.60;;;;;;;19.11;48.51;99761.23;2261559;77;21440;-78
2022/05/30 11:33:22;;;;;;;3.10;1.75;;;;;;;19.20;48.68;99754.45;2257555;77;20958;-78
2022/05/30 11:36:44;;;;;;;3.52;1.72;;;;;;;19.28;48.49;99757.34;2257734;77;21153;-75
2022/05/30 11:40:00;;;;;;;2.72;1.65;;;;;;;18.95;48.01;99757.33;2256946;77;21023;-76
2022/05/30 11:43:22;;;;;;;2.98;1.70;;;;;;;19.02;47.79;99748.66;2254224;77;20966;-76
2022/05/30 11:46:36;;;;;;;3.35;1.70;;;;;;;18.86;47.41;99749.31;2252921;77;20974;-75
2022/05/30 11:50:27;;;;;;;3.08;1.47;;;;;;;18.86;47.86;99745.28;2259778;77;21038;-83
2022/05/30 11:54:00;;;;;;;2.50;1.55;;;;;;;19.13;48.20;99746.52;2262178;77;21479;-75
2022/05/30 11:57:14;;;;;;;3.20;1.30;;;;;;;19.37;47.74;99747.37;2258591;77;20972;-81
2022/05/30 12:00:32;;;;;;;1.70;1.50;;;;;;;19.51;46.89;99738.50;2257037;77;21005;-81
2022/05/30 12:03:54;;;;;;;2.08;1.60;;;;;;;19.47;46.71;99738.70;2260806;77;21029;-77
2022/05/30 12:07:29;;;;;;;2.45;1.45;;;;;;;19.12;46.37;99740.00;2203380;77;21043;-76
2022/05/30 12:11:21;;;;;;;2.87;1.47;;;;;;;19.16;45.92;99746.05;2252279;77;21000;-75
2022/05/30 12:14:47;;;;;;;1.72;1.37;;;;;;;19.04;45.62;99739.31;2257516;77;21490;-76
2022/05/30 12:25:02;;;;;;;3.42;1.50;;;;;;;19.70;45.18;99731.16;2260414;77;21035;-77
2022/05/30 12:28:32;;;;;;;3.67;1.40;;;;;;;19.79;45.15;99732.43;2252634;77;21020;-75
2022/05/30 12:31:36;;;;;;;3.05;1.10;;;;;;;19.98;45.28;99736.33;2256059;77;21558;-74
2022/05/30 12:35:10;;;;;;;3.17;1.50;;;;;;;19.93;44.67;99737.03;2255836;77;21035;-83
2022/05/30 12:38:13;;;;;;;4.10;1.70;;;;;;;19.88;44.21;99740.98;2260801;77;20945;-76
2022/05/30 12:41:23;;;;;;;2.47;1.37;;;;;;;19.79;43.44;99731.61;2255240;77;21000;-76
2022/05/30 12:44:44;;;;;;;2.97;1.47;;;;;;;19.84;44.08;99739.27;2253918;77;21541;-76
2022/05/30 12:47:51;;;;;;;3.02;1.62;;;;;;;19.90;44.04;99738.32;2251852;77;21296;-75
2022/05/30 12:50:57;;;;;;;3.15;1.42;;;;;;;19.88;43.93;99736.95;2241901;77;21616;-75
2022/05/30 12:54:07;;;;;;;2.27;1.40;;;;;;;19.70;43.53;99737.89;2239720;78;21014;-75
2022/05/30 12:57:13;;;;;;;2.93;1.20;;;;;;;19.29;43.20;99735.61;2244585;78;21038;-82
2022/05/30 13:00:38;;;;;;;2.00;1.17;;;;;;;19.23;43.48;99740.55;2239874;78;21215;-85
2022/05/30 13:03:45;;;;;;;1.30;1.20;;;;;;;19.19;43.19;99744.77;2241858;77;21058;-76
2022/05/30 13:07:04;;;;;;;2.58;1.60;;;;;;;19.16;43.51;99747.92;2235791;78;20989;-75
2022/05/30 13:10:09;;;;;;;2.85;1.20;;;;;;;18.90;43.29;99751.32;2239933;78;21660;-76
2022/05/30 13:13:15;;;;;;;2.37;1.20;;;;;;;18.84;43.82;99751.41;2240889;78;20939;-80
2022/05/30 13:16:31;;;;;;;3.35;1.42;;;;;;;18.80;43.52;99750.52;2241769;78;21021;-76
2022/05/30 13:19:32;;;;;;;2.05;1.30;;;;;;;18.75;43.28;99750.91;2233792;78;20994;-79
2022/05/30 13:22:38;;;;;;;2.47;1.10;;;;;;;18.75;44.79;99745.53;2246985;77;20979;-76
2022/05/30 13:25:47;;;;;;;2.15;1.65;;;;;;;18.84;44.58;99744.68;2239626;78;20963;-76
2022/05/30 13:28:50;;;;;;;4.12;1.37;;;;;;;18.77;44.12;99753.67;2249879;78;21452;-75
2022/05/30 13:31:52;;;;;;;2.52;1.25;;;;;;;18.70;44.20;99750.25;2235720;78;21551;-76
2022/05/30 13:34:58;;;;;;;1.70;1.10;;;;;;;18.70;44.44;99752.93;2234498;78;20950;-75
2022/05/30 13:38:04;;;;;;;2.05;1.20;;;;;;;18.89;43.22;99745.63;2234550;78;21023;-77
2022/05/30 13:41:25;;;;;;;2.05;1.12;;;;;;;18.95;43.32;99754.14;2247017;78;21044;-82
2022/05/30 13:44:29;;;;;;;1.72;1.10;;;;;;;18.96;42.39;99746.89;2214284;78;20998;-79
2022/05/30 13:47:31;;;;;;;1.10;1.00;;;;;;;18.98;42.42;99748.30;2252443;78;20974;-76
2022/05/30 13:51:05;;;;;;;1.52;1.12;;;;;;;18.95;41.78;99745.23;2240208;77;21093;-76
2022/05/30 13:54:09;;;;;;;3.20;1.50;;;;;;;18.70;42.69;99742.72;2235161;78;20955;-76
2022/05/30 13:57:13;;;;;;;2.98;1.15;;;;;;;18.67;43.02;99741.30;2242399;78;20941;-76
2022/05/30 14:00:31;;;;;;;1.98;1.10;;;;;;;18.68;42.81;99742.92;2236876;78;21097;-79
2022/05/30 14:03:33;;;;;;;1.95;1.10;;;;;;;18.72;43.01;99741.41;2241143;78;20966;-79
2022/05/30 14:06:42;;;;;;;1.30;1.00;;;;;;;18.76;42.21;99735.10;2239203;78;21068;-76
2022/05/30 14:09:45;;;;;;;2.08;1.20;;;;;;;18.61;42.56;99742.19;2246977;78;21005;-76
2022/05/30 14:12:52;;;;;;;1.47;1.00;;;;;;;18.47;42.76;99748.80;2248296;78;21030;-75
2022/05/30 14:15:54;;;;;;;2.02;1.00;;;;;;;18.30;42.42;99749.94;2237442;78;21470;-76
2022/05/30 14:19:03;;;;;;;2.15;1.00;;;;;;;18.35;42.67;99745.53;2243459;77;21483;-76
2022/05/30 14:22:25;;;;;;;3.17;1.25;;;;;;;18.26;42.97;99746.90;2244859;77;21614;-77
2022/05/30 14:25:34;;;;;;;2.17;1.20;;;;;;;18.01;43.41;99751.02;2246275;78;21474;-75
2022/05/30 14:29:07;;;;;;;1.87;1.10;;;;;;;18.09;43.89;99751.25;2231511;78;20993;-83
2022/05/30 14:32:25;;;;;;;1.40;0.95;;;;;;;18.09;43.21;99751.25;2244866;78;20961;-75
2022/05/30 14:35:27;;;;;;;3.10;1.07;;;;;;;18.12;43.65;99750.80;2249377;77;20998;-80
2022/05/30 14:38:39;;;;;;;3.65;1.10;;;;;;;18.15;43.33;99757.87;2233141;78;21442;-86
2022/05/30 14:41:57;;;;;;;3.08;1.05;;;;;;;18.08;43.12;99757.14;2220401;78;21469;-74
2022/05/30 14:45:15;;;;;;;2.35;1.32;;;;;;;18.04;43.73;99758.63;2239274;78;20935;-75
2022/05/30 14:48:21;;;;;;;1.32;1.22;;;;;;;18.05;43.27;99763.49;2241021;78;20949;-75
2022/05/30 14:51:42;;;;;;;2.75;1.10;;;;;;;18.04;43.29;99768.55;2225181;78;20989;-75
2022/05/30 14:54:52;;;;;;;4.35;1.45;;;;;;;18.02;43.82;99767.94;2249786;77;21042;-75
2022/05/30 14:57:55;;;;;;;4.75;1.40;;;;;;;18.05;43.59;99771.55;2249353;77;20995;-74
2022/05/30 15:01:00;;;;;;;2.15;1.45;;;;;;;17.92;43.38;99777.87;2247698;77;21089;-68
2022/05/30 15:04:09;;;;;;;3.02;1.45;;;;;;;17.81;43.76;99790.16;2250199;77;21002;-73
2022/05/30 15:07:21;;;;;;;4.42;1.98;;;;;;;17.64;43.39;99806.50;2254111;77;20939;-75
2022/05/30 15:10:23;;;;;;;3.60;2.00;;;;;;;17.03;44.95;99821.39;2252945;77;21034;-69
2022/05/30 15:13:24;;;;;;;4.20;1.85;;;;;;;16.43;46.12;99824.36;2247628;77;21015;-75
2022/05/30 15:16:27;;;;;;;4.75;2.05;;;;;;;15.93;48.01;99827.28;2246440;77;21000;-69